In Rescue
 
Open Full Screen Window  High Contrast Mode
Wind Gusting 14 knots
09
May 20, 2019 3:00 PM EDT
Weather Information
Wind Direction
  210 °
Wind Speed
  09 kt (10 mph)
Wind Gust
  14 kt (16 mph)
Altimeter
29.64 in
Visibility
10 SM
Temperature
22° C
72° F
Dewpoint
16° C
61° F
Humidity
69%
Sky Condition
Overcast @ 8,000 ft
Broken @ 7,000 ft
Scattered @ 4,300 ft
VFR

METAR KEFK 201900Z AUTO 21009G14KT 10SM SCT043 BKN070 OVC080 22/16 A2964 RMK AO2 T02180159

FAA Disclaimer: The data displayed is for advisory purposes only and is not to be used for flight planning or operations.